sensor_id;sensor_type;location;lat;lon;timestamp;temperature;humidity
20891;DHT22;10605;52.968;8.844;2023-02-03T00:01:20;8.00;99.90
20891;DHT22;10605;52.968;8.844;2023-02-03T00:03:47;8.10;99.90
20891;DHT22;10605;52.968;8.844;2023-02-03T00:06:13;8.10;99.90
20891;DHT22;10605;52.968;8.844;2023-02-03T00:08:39;8.10;99.90
20891;DHT22;10605;52.968;8.844;2023-02-03T00:11:05;8.10;99.90
20891;DHT22;10605;52.968;8.844;2023-02-03T00:13:31;8.10;99.90
20891;DHT22;10605;52.968;8.844;2023-02-03T00:15:57;8.10;99.90
20891;DHT22;10605;52.968;8.844;2023-02-03T00:18:22;8.20;99.90
20891;DHT22;10605;52.968;8.844;2023-02-03T00:20:48;8.10;99.90
20891;DHT22;10605;52.968;8.844;2023-02-03T00:23:14;8.10;99.90
20891;DHT22;10605;52.968;8.844;2023-02-03T00:25:39;8.10;99.90
20891;DHT22;10605;52.968;8.844;2023-02-03T00:28:05;8.20;99.90
20891;DHT22;10605;52.968;8.844;2023-02-03T00:30:34;8.10;99.90
20891;DHT22;10605;52.968;8.844;2023-02-03T00:33:00;8.20;99.90
20891;DHT22;10605;52.968;8.844;2023-02-03T00:35:26;8.10;99.90
20891;DHT22;10605;52.968;8.844;2023-02-03T00:37:53;8.10;99.90
20891;DHT22;10605;52.968;8.844;2023-02-03T00:40:20;8.10;99.90
20891;DHT22;10605;52.968;8.844;2023-02-03T00:42:46;8.10;99.90
20891;DHT22;10605;52.968;8.844;2023-02-03T00:45:12;8.10;99.90
20891;DHT22;10605;52.968;8.844;2023-02-03T00:47:37;8.10;99.90
20891;DHT22;10605;52.968;8.844;2023-02-03T00:50:04;8.10;99.90
20891;DHT22;10605;52.968;8.844;2023-02-03T00:52:30;8.10;99.90
20891;DHT22;10605;52.968;8.844;2023-02-03T00:54:56;8.10;99.90
20891;DHT22;10605;52.968;8.844;2023-02-03T00:57:21;8.10;99.90
20891;DHT22;10605;52.968;8.844;2023-02-03T00:59:47;8.10;99.90
20891;DHT22;10605;52.968;8.844;2023-02-03T01:02:13;8.10;99.90
20891;DHT22;10605;52.968;8.844;2023-02-03T01:04:38;8.10;99.90
20891;DHT22;10605;52.968;8.844;2023-02-03T01:07:04;8.20;99.90
20891;DHT22;10605;52.968;8.844;2023-02-03T01:09:34;8.10;99.90
20891;DHT22;10605;52.968;8.844;2023-02-03T01:12:00;8.10;99.90
20891;DHT22;10605;52.968;8.844;2023-02-03T01:14:25;8.10;99.90
20891;DHT22;10605;52.968;8.844;2023-02-03T01:16:51;8.10;99.90
20891;DHT22;10605;52.968;8.844;2023-02-03T01:19:17;8.20;99.90
20891;DHT22;10605;52.968;8.844;2023-02-03T01:21:42;8.20;99.90
20891;DHT22;10605;52.968;8.844;2023-02-03T01:24:08;8.20;99.90
20891;DHT22;10605;52.968;8.844;2023-02-03T01:26:34;8.20;99.90
20891;DHT22;10605;52.968;8.844;2023-02-03T01:29:00;8.20;99.90
20891;DHT22;10605;52.968;8.844;2023-02-03T01:31:32;8.20;99.90
20891;DHT22;10605;52.968;8.844;2023-02-03T01:34:02;8.30;99.90
20891;DHT22;10605;52.968;8.844;2023-02-03T01:36:29;8.20;99.90
20891;DHT22;10605;52.968;8.844;2023-02-03T01:38:55;8.30;99.90
20891;DHT22;10605;52.968;8.844;2023-02-03T01:41:24;8.30;99.90
20891;DHT22;10605;52.968;8.844;2023-02-03T01:43:52;8.30;99.90
20891;DHT22;10605;52.968;8.844;2023-02-03T01:46:26;8.30;99.90
20891;DHT22;10605;52.968;8.844;2023-02-03T01:48:55;8.30;99.90
20891;DHT22;10605;52.968;8.844;2023-02-03T01:51:21;8.30;99.90
20891;DHT22;10605;52.968;8.844;2023-02-03T01:53:48;8.30;99.90
20891;DHT22;10605;52.968;8.844;2023-02-03T01:56:15;8.30;99.90
20891;DHT22;10605;52.968;8.844;2023-02-03T01:58:42;8.30;99.90
20891;DHT22;10605;52.968;8.844;2023-02-03T02:01:08;8.30;99.90
20891;DHT22;10605;52.968;8.844;2023-02-03T02:03:41;8.30;99.90
20891;DHT22;10605;52.968;8.844;2023-02-03T02:06:10;8.30;99.90
20891;DHT22;10605;52.968;8.844;2023-02-03T02:08:37;8.30;99.90
20891;DHT22;10605;52.968;8.844;2023-02-03T02:11:04;8.40;99.90
20891;DHT22;10605;52.968;8.844;2023-02-03T02:13:32;8.40;99.90
20891;DHT22;10605;52.968;8.844;2023-02-03T02:18:48;8.30;99.90
20891;DHT22;10605;52.968;8.844;2023-02-03T02:46:13;8.40;99.90
20891;DHT22;10605;52.968;8.844;2023-02-03T02:48:49;8.40;99.90
20891;DHT22;10605;52.968;8.844;2023-02-03T02:51:17;8.40;99.90
20891;DHT22;10605;52.968;8.844;2023-02-03T02:53:49;8.40;99.90
20891;DHT22;10605;52.968;8.844;2023-02-03T02:56:17;8.40;99.90
20891;DHT22;10605;52.968;8.844;2023-02-03T02:58:46;8.40;99.90
20891;DHT22;10605;52.968;8.844;2023-02-03T03:01:13;8.40;99.90
20891;DHT22;10605;52.968;8.844;2023-02-03T03:03:40;8.40;99.90
20891;DHT22;10605;52.968;8.844;2023-02-03T03:06:14;8.40;99.90
20891;DHT22;10605;52.968;8.844;2023-02-03T03:11:16;8.50;99.90
20891;DHT22;10605;52.968;8.844;2023-02-03T03:13:48;8.50;99.90
20891;DHT22;10605;52.968;8.844;2023-02-03T03:16:16;8.50;99.90
20891;DHT22;10605;52.968;8.844;2023-02-03T03:18:48;8.50;99.90
20891;DHT22;10605;52.968;8.844;2023-02-03T03:21:23;8.50;99.90
20891;DHT22;10605;52.968;8.844;2023-02-03T03:23:51;8.50;99.90
20891;DHT22;10605;52.968;8.844;2023-02-03T03:26:34;8.50;99.90
20891;DHT22;10605;52.968;8.844;2023-02-03T03:29:13;8.50;99.90
20891;DHT22;10605;52.968;8.844;2023-02-03T03:31:40;8.50;99.90
20891;DHT22;10605;52.968;8.844;2023-02-03T03:34:08;8.50;99.90
20891;DHT22;10605;52.968;8.844;2023-02-03T03:41:59;8.50;99.90
20891;DHT22;10605;52.968;8.844;2023-02-03T03:44:38;8.50;99.90
20891;DHT22;10605;52.968;8.844;2023-02-03T03:47:16;8.50;99.90
20891;DHT22;10605;52.968;8.844;2023-02-03T03:49:45;8.50;99.90
20891;DHT22;10605;52.968;8.844;2023-02-03T03:52:16;8.50;99.90
20891;DHT22;10605;52.968;8.844;2023-02-03T03:54:43;8.50;99.90
20891;DHT22;10605;52.968;8.844;2023-02-03T03:57:20;8.50;99.90
20891;DHT22;10605;52.968;8.844;2023-02-03T03:59:48;8.50;99.90
20891;DHT22;10605;52.968;8.844;2023-02-03T04:02:15;8.50;99.90
20891;DHT22;10605;52.968;8.844;2023-02-03T04:04:43;8.50;99.90
20891;DHT22;10605;52.968;8.844;2023-02-03T04:07:12;8.50;99.90
20891;DHT22;10605;52.968;8.844;2023-02-03T04:09:38;8.60;99.90
20891;DHT22;10605;52.968;8.844;2023-02-03T04:12:05;8.60;99.90
20891;DHT22;10605;52.968;8.844;2023-02-03T04:14:34;8.60;99.90
20891;DHT22;10605;52.968;8.844;2023-02-03T04:17:00;8.60;99.90
20891;DHT22;10605;52.968;8.844;2023-02-03T04:19:26;8.60;99.90
20891;DHT22;10605;52.968;8.844;2023-02-03T04:21:52;8.70;99.90
20891;DHT22;10605;52.968;8.844;2023-02-03T04:24:17;8.70;99.90
20891;DHT22;10605;52.968;8.844;2023-02-03T04:26:43;8.60;99.90
20891;DHT22;10605;52.968;8.844;2023-02-03T04:29:09;8.60;99.90
20891;DHT22;10605;52.968;8.844;2023-02-03T04:31:35;8.60;99.90
20891;DHT22;10605;52.968;8.844;2023-02-03T04:34:00;8.70;99.90
20891;DHT22;10605;52.968;8.844;2023-02-03T04:36:26;8.70;99.90
20891;DHT22;10605;52.968;8.844;2023-02-03T04:38:52;8.70;99.90
20891;DHT22;10605;52.968;8.844;2023-02-03T04:41:18;8.60;99.90
20891;DHT22;10605;52.968;8.844;2023-02-03T04:43:43;8.60;99.90
20891;DHT22;10605;52.968;8.844;2023-02-03T04:46:09;8.60;99.90
20891;DHT22;10605;52.968;8.844;2023-02-03T04:48:35;8.50;99.90
20891;DHT22;10605;52.968;8.844;2023-02-03T04:51:02;8.50;99.90
20891;DHT22;10605;52.968;8.844;2023-02-03T04:53:29;8.50;99.90
20891;DHT22;10605;52.968;8.844;2023-02-03T04:55:54;8.50;99.90
20891;DHT22;10605;52.968;8.844;2023-02-03T04:58:20;8.50;99.90
20891;DHT22;10605;52.968;8.844;2023-02-03T05:00:46;8.40;99.90
20891;DHT22;10605;52.968;8.844;2023-02-03T05:03:11;8.40;99.90
20891;DHT22;10605;52.968;8.844;2023-02-03T05:05:37;8.40;99.90
20891;DHT22;10605;52.968;8.844;2023-02-03T05:08:03;8.40;99.90
20891;DHT22;10605;52.968;8.844;2023-02-03T05:10:29;8.40;99.90
20891;DHT22;10605;52.968;8.844;2023-02-03T05:12:54;8.40;99.90
20891;DHT22;10605;52.968;8.844;2023-02-03T05:15:20;8.40;99.90
20891;DHT22;10605;52.968;8.844;2023-02-03T05:17:46;8.40;99.90
20891;DHT22;10605;52.968;8.844;2023-02-03T05:20:11;8.50;99.90
20891;DHT22;10605;52.968;8.844;2023-02-03T05:22:37;8.50;99.90
20891;DHT22;10605;52.968;8.844;2023-02-03T05:25:03;8.50;99.90
20891;DHT22;10605;52.968;8.844;2023-02-03T05:27:29;8.60;99.90
20891;DHT22;10605;52.968;8.844;2023-02-03T05:29:55;8.60;99.90
20891;DHT22;10605;52.968;8.844;2023-02-03T05:32:21;8.60;99.90
20891;DHT22;10605;52.968;8.844;2023-02-03T05:34:46;8.60;99.90
20891;DHT22;10605;52.968;8.844;2023-02-03T05:37:12;8.60;99.90
20891;DHT22;10605;52.968;8.844;2023-02-03T05:39:37;8.60;99.90
20891;DHT22;10605;52.968;8.844;2023-02-03T05:42:03;8.70;99.90
20891;DHT22;10605;52.968;8.844;2023-02-03T05:44:29;8.60;99.90
20891;DHT22;10605;52.968;8.844;2023-02-03T05:46:56;8.60;99.90
20891;DHT22;10605;52.968;8.844;2023-02-03T05:49:23;8.60;99.90
20891;DHT22;10605;52.968;8.844;2023-02-03T05:51:50;8.60;99.90
20891;DHT22;10605;52.968;8.844;2023-02-03T05:54:16;8.60;99.90
20891;DHT22;10605;52.968;8.844;2023-02-03T05:56:42;8.60;99.90
20891;DHT22;10605;52.968;8.844;2023-02-03T05:59:08;8.50;99.90
20891;DHT22;10605;52.968;8.844;2023-02-03T06:01:34;8.50;99.90
20891;DHT22;10605;52.968;8.844;2023-02-03T06:04:00;8.50;99.90
20891;DHT22;10605;52.968;8.844;2023-02-03T06:06:27;8.50;99.90
20891;DHT22;10605;52.968;8.844;2023-02-03T06:08:59;8.50;99.90
20891;DHT22;10605;52.968;8.844;2023-02-03T06:11:24;8.50;99.90
20891;DHT22;10605;52.968;8.844;2023-02-03T06:13:50;8.50;99.90
20891;DHT22;10605;52.968;8.844;2023-02-03T06:16:16;8.40;99.90
20891;DHT22;10605;52.968;8.844;2023-02-03T06:18:42;8.40;99.90
20891;DHT22;10605;52.968;8.844;2023-02-03T06:21:07;8.30;99.90
20891;DHT22;10605;52.968;8.844;2023-02-03T06:23:33;8.30;99.90
20891;DHT22;10605;52.968;8.844;2023-02-03T06:25:59;8.30;99.90
20891;DHT22;10605;52.968;8.844;2023-02-03T06:28:25;8.20;99.90
20891;DHT22;10605;52.968;8.844;2023-02-03T06:30:51;8.20;99.90
20891;DHT22;10605;52.968;8.844;2023-02-03T06:33:20;8.20;99.90
20891;DHT22;10605;52.968;8.844;2023-02-03T06:35:46;8.20;99.90
20891;DHT22;10605;52.968;8.844;2023-02-03T06:38:11;8.20;99.90
20891;DHT22;10605;52.968;8.844;2023-02-03T06:40:37;8.10;99.90
20891;DHT22;10605;52.968;8.844;2023-02-03T06:43:03;8.10;99.90
20891;DHT22;10605;52.968;8.844;2023-02-03T06:45:29;8.20;99.90
20891;DHT22;10605;52.968;8.844;2023-02-03T06:47:54;8.10;99.90
20891;DHT22;10605;52.968;8.844;2023-02-03T06:50:20;8.20;99.90
20891;DHT22;10605;52.968;8.844;2023-02-03T06:52:48;8.20;99.90
20891;DHT22;10605;52.968;8.844;2023-02-03T06:55:14;8.20;99.90
20891;DHT22;10605;52.968;8.844;2023-02-03T06:57:44;8.20;99.90
20891;DHT22;10605;52.968;8.844;2023-02-03T07:00:11;8.30;99.90
20891;DHT22;10605;52.968;8.844;2023-02-03T07:02:38;8.30;99.90
20891;DHT22;10605;52.968;8.844;2023-02-03T07:05:04;8.40;99.90
20891;DHT22;10605;52.968;8.844;2023-02-03T07:07:30;8.50;99.90
20891;DHT22;10605;52.968;8.844;2023-02-03T07:09:57;8.50;99.90
20891;DHT22;10605;52.968;8.844;2023-02-03T07:12:23;8.50;99.90
20891;DHT22;10605;52.968;8.844;2023-02-03T07:14:48;8.50;99.90
20891;DHT22;10605;52.968;8.844;2023-02-03T07:17:14;8.60;99.90
20891;DHT22;10605;52.968;8.844;2023-02-03T07:19:39;8.60;99.90
20891;DHT22;10605;52.968;8.844;2023-02-03T07:22:05;8.60;99.90
20891;DHT22;10605;52.968;8.844;2023-02-03T07:24:31;8.70;99.90
20891;DHT22;10605;52.968;8.844;2023-02-03T07:27:00;8.80;99.90
20891;DHT22;10605;52.968;8.844;2023-02-03T07:29:35;8.90;99.90
20891;DHT22;10605;52.968;8.844;2023-02-03T07:32:01;8.90;99.90
20891;DHT22;10605;52.968;8.844;2023-02-03T07:34:27;8.90;99.90
20891;DHT22;10605;52.968;8.844;2023-02-03T07:36:53;8.90;99.90
20891;DHT22;10605;52.968;8.844;2023-02-03T07:39:18;9.00;99.90
20891;DHT22;10605;52.968;8.844;2023-02-03T07:41:44;9.00;99.90
20891;DHT22;10605;52.968;8.844;2023-02-03T07:44:10;9.10;99.90
20891;DHT22;10605;52.968;8.844;2023-02-03T07:46:35;9.10;99.90
20891;DHT22;10605;52.968;8.844;2023-02-03T07:49:07;9.10;99.90
20891;DHT22;10605;52.968;8.844;2023-02-03T07:51:32;9.10;99.90
20891;DHT22;10605;52.968;8.844;2023-02-03T07:53:58;9.10;99.90
20891;DHT22;10605;52.968;8.844;2023-02-03T07:56:24;9.10;99.90
20891;DHT22;10605;52.968;8.844;2023-02-03T07:58:52;9.20;99.90
20891;DHT22;10605;52.968;8.844;2023-02-03T08:01:18;9.20;99.90
20891;DHT22;10605;52.968;8.844;2023-02-03T08:03:43;9.20;99.90
20891;DHT22;10605;52.968;8.844;2023-02-03T08:06:09;9.20;99.90
20891;DHT22;10605;52.968;8.844;2023-02-03T08:08:35;9.20;99.90
20891;DHT22;10605;52.968;8.844;2023-02-03T08:11:01;9.20;99.90
20891;DHT22;10605;52.968;8.844;2023-02-03T08:13:27;9.20;99.90
20891;DHT22;10605;52.968;8.844;2023-02-03T08:15:52;9.20;99.90
20891;DHT22;10605;52.968;8.844;2023-02-03T08:18:18;9.20;99.90
20891;DHT22;10605;52.968;8.844;2023-02-03T08:20:46;9.20;99.90
20891;DHT22;10605;52.968;8.844;2023-02-03T08:23:12;9.20;99.90
20891;DHT22;10605;52.968;8.844;2023-02-03T08:25:38;9.20;99.90
20891;DHT22;10605;52.968;8.844;2023-02-03T08:28:03;9.30;99.90
20891;DHT22;10605;52.968;8.844;2023-02-03T08:30:29;9.30;99.90
20891;DHT22;10605;52.968;8.844;2023-02-03T08:32:56;9.30;99.90
20891;DHT22;10605;52.968;8.844;2023-02-03T08:35:21;9.30;99.90
20891;DHT22;10605;52.968;8.844;2023-02-03T08:37:47;9.30;99.90
20891;DHT22;10605;52.968;8.844;2023-02-03T08:40:12;9.40;99.90
20891;DHT22;10605;52.968;8.844;2023-02-03T08:42:38;9.40;99.90
20891;DHT22;10605;52.968;8.844;2023-02-03T08:45:04;9.40;99.90
20891;DHT22;10605;52.968;8.844;2023-02-03T08:47:30;9.40;99.90
20891;DHT22;10605;52.968;8.844;2023-02-03T08:49:56;9.40;99.90
20891;DHT22;10605;52.968;8.844;2023-02-03T08:52:22;9.40;99.90
20891;DHT22;10605;52.968;8.844;2023-02-03T08:54:47;9.40;99.90
20891;DHT22;10605;52.968;8.844;2023-02-03T08:57:13;9.50;99.90
20891;DHT22;10605;52.968;8.844;2023-02-03T08:59:40;9.60;99.90
20891;DHT22;10605;52.968;8.844;2023-02-03T09:02:10;9.60;99.90
20891;DHT22;10605;52.968;8.844;2023-02-03T09:04:36;9.70;99.90
20891;DHT22;10605;52.968;8.844;2023-02-03T09:07:02;9.80;99.90
20891;DHT22;10605;52.968;8.844;2023-02-03T09:09:29;9.80;99.90
20891;DHT22;10605;52.968;8.844;2023-02-03T09:11:55;9.80;99.90
20891;DHT22;10605;52.968;8.844;2023-02-03T09:14:27;9.90;99.90
20891;DHT22;10605;52.968;8.844;2023-02-03T09:16:54;10.00;99.90
20891;DHT22;10605;52.968;8.844;2023-02-03T09:19:19;9.90;99.90
20891;DHT22;10605;52.968;8.844;2023-02-03T09:21:45;9.80;99.90
20891;DHT22;10605;52.968;8.844;2023-02-03T09:24:16;9.80;99.90
20891;DHT22;10605;52.968;8.844;2023-02-03T09:26:42;9.70;99.90
20891;DHT22;10605;52.968;8.844;2023-02-03T09:29:08;8.80;99.90
20891;DHT22;10605;52.968;8.844;2023-02-03T09:31:34;8.30;99.90
20891;DHT22;10605;52.968;8.844;2023-02-03T09:34:00;8.20;99.90
20891;DHT22;10605;52.968;8.844;2023-02-03T09:36:25;8.20;99.90
20891;DHT22;10605;52.968;8.844;2023-02-03T09:38:51;8.50;99.90
20891;DHT22;10605;52.968;8.844;2023-02-03T09:44:30;8.80;99.90
20891;DHT22;10605;52.968;8.844;2023-02-03T09:47:12;9.00;99.90
20891;DHT22;10605;52.968;8.844;2023-02-03T09:49:43;9.10;99.90
20891;DHT22;10605;52.968;8.844;2023-02-03T09:52:19;9.10;99.90
20891;DHT22;10605;52.968;8.844;2023-02-03T09:55:32;9.30;99.90
20891;DHT22;10605;52.968;8.844;2023-02-03T10:00:45;9.80;99.90
20891;DHT22;10605;52.968;8.844;2023-02-03T10:03:38;9.90;99.90
20891;DHT22;10605;52.968;8.844;2023-02-03T10:14:39;10.70;99.90
20891;DHT22;10605;52.968;8.844;2023-02-03T10:17:32;10.80;99.90
20891;DHT22;10605;52.968;8.844;2023-02-03T10:22:33;11.00;99.90
20891;DHT22;10605;52.968;8.844;2023-02-03T10:27:39;11.10;99.90
20891;DHT22;10605;52.968;8.844;2023-02-03T10:30:28;11.10;99.90
20891;DHT22;10605;52.968;8.844;2023-02-03T10:33:09;11.40;99.90
20891;DHT22;10605;52.968;8.844;2023-02-03T10:35:52;11.50;99.90
20891;DHT22;10605;52.968;8.844;2023-02-03T10:38:42;11.50;99.90
20891;DHT22;10605;52.968;8.844;2023-02-03T10:41:10;11.20;99.90
20891;DHT22;10605;52.968;8.844;2023-02-03T10:43:36;11.30;99.90
20891;DHT22;10605;52.968;8.844;2023-02-03T10:46:28;11.50;99.90
20891;DHT22;10605;52.968;8.844;2023-02-03T10:48:54;12.10;99.90
20891;DHT22;10605;52.968;8.844;2023-02-03T10:51:29;11.90;99.90
20891;DHT22;10605;52.968;8.844;2023-02-03T10:53:59;12.30;99.90
20891;DHT22;10605;52.968;8.844;2023-02-03T10:56:34;11.90;99.90
20891;DHT22;10605;52.968;8.844;2023-02-03T10:59:01;11.90;99.90
20891;DHT22;10605;52.968;8.844;2023-02-03T11:01:41;12.70;99.90
20891;DHT22;10605;52.968;8.844;2023-02-03T11:07:00;12.50;99.90
20891;DHT22;10605;52.968;8.844;2023-02-03T11:12:12;12.00;99.90
20891;DHT22;10605;52.968;8.844;2023-02-03T11:14:46;12.10;99.90
20891;DHT22;10605;52.968;8.844;2023-02-03T11:17:21;12.00;99.90
20891;DHT22;10605;52.968;8.844;2023-02-03T11:19:50;12.30;99.90
20891;DHT22;10605;52.968;8.844;2023-02-03T11:22:36;12.70;99.90
20891;DHT22;10605;52.968;8.844;2023-02-03T11:25:13;12.10;99.90
20891;DHT22;10605;52.968;8.844;2023-02-03T11:27:40;12.00;99.90
20891;DHT22;10605;52.968;8.844;2023-02-03T11:30:23;11.60;99.90
20891;DHT22;10605;52.968;8.844;2023-02-03T11:32:50;11.10;99.90
20891;DHT22;10605;52.968;8.844;2023-02-03T11:35:17;11.60;99.90
20891;DHT22;10605;52.968;8.844;2023-02-03T11:37:49;11.80;99.90
20891;DHT22;10605;52.968;8.844;2023-02-03T11:43:15;11.50;99.90
20891;DHT22;10605;52.968;8.844;2023-02-03T11:45:44;11.30;99.90
20891;DHT22;10605;52.968;8.844;2023-02-03T11:48:21;11.30;99.90
20891;DHT22;10605;52.968;8.844;2023-02-03T11:56:24;11.10;99.90
20891;DHT22;10605;52.968;8.844;2023-02-03T12:10:12;11.20;99.90
20891;DHT22;10605;52.968;8.844;2023-02-03T12:56:04;11.40;99.90
20891;DHT22;10605;52.968;8.844;2023-02-03T16:12:31;8.60;99.90
20891;DHT22;10605;52.968;8.844;2023-02-03T16:58:14;8.40;99.90
20891;DHT22;10605;52.968;8.844;2023-02-03T17:00:43;8.30;99.90
20891;DHT22;10605;52.968;8.844;2023-02-03T17:03:12;8.30;99.90
20891;DHT22;10605;52.968;8.844;2023-02-03T17:05:39;8.30;99.90
20891;DHT22;10605;52.968;8.844;2023-02-03T17:08:06;8.30;99.90
20891;DHT22;10605;52.968;8.844;2023-02-03T17:10:36;8.30;99.90
20891;DHT22;10605;52.968;8.844;2023-02-03T17:13:03;8.30;99.90
20891;DHT22;10605;52.968;8.844;2023-02-03T17:15:29;8.30;99.90
20891;DHT22;10605;52.968;8.844;2023-02-03T17:17:54;8.30;99.90
20891;DHT22;10605;52.968;8.844;2023-02-03T17:20:22;8.30;99.90
20891;DHT22;10605;52.968;8.844;2023-02-03T17:22:47;8.30;99.90
20891;DHT22;10605;52.968;8.844;2023-02-03T17:25:17;8.30;99.90
20891;DHT22;10605;52.968;8.844;2023-02-03T17:27:43;8.30;99.90
20891;DHT22;10605;52.968;8.844;2023-02-03T17:30:09;8.30;99.90
20891;DHT22;10605;52.968;8.844;2023-02-03T17:32:35;8.20;99.90
20891;DHT22;10605;52.968;8.844;2023-02-03T17:35:01;8.20;99.90
20891;DHT22;10605;52.968;8.844;2023-02-03T17:37:26;8.10;99.90
20891;DHT22;10605;52.968;8.844;2023-02-03T17:39:52;8.10;99.90
20891;DHT22;10605;52.968;8.844;2023-02-03T17:42:18;8.10;99.90
20891;DHT22;10605;52.968;8.844;2023-02-03T17:44:44;8.10;99.90
20891;DHT22;10605;52.968;8.844;2023-02-03T17:47:09;8.20;99.90
20891;DHT22;10605;52.968;8.844;2023-02-03T17:49:35;8.10;99.90
20891;DHT22;10605;52.968;8.844;2023-02-03T17:52:01;8.20;99.90
20891;DHT22;10605;52.968;8.844;2023-02-03T17:54:26;8.20;99.90
20891;DHT22;10605;52.968;8.844;2023-02-03T17:56:52;8.10;99.90
20891;DHT22;10605;52.968;8.844;2023-02-03T17:59:18;8.00;99.90
20891;DHT22;10605;52.968;8.844;2023-02-03T18:01:43;7.80;99.90
20891;DHT22;10605;52.968;8.844;2023-02-03T18:04:11;7.70;99.90
20891;DHT22;10605;52.968;8.844;2023-02-03T18:06:37;7.70;99.90
20891;DHT22;10605;52.968;8.844;2023-02-03T18:09:05;7.60;99.90
20891;DHT22;10605;52.968;8.844;2023-02-03T18:11:33;7.60;99.90
20891;DHT22;10605;52.968;8.844;2023-02-03T18:13:59;7.60;99.90
20891;DHT22;10605;52.968;8.844;2023-02-03T18:16:28;7.50;99.90
20891;DHT22;10605;52.968;8.844;2023-02-03T18:18:57;7.50;99.90
20891;DHT22;10605;52.968;8.844;2023-02-03T18:21:23;7.50;99.90
20891;DHT22;10605;52.968;8.844;2023-02-03T18:23:50;7.50;99.90
20891;DHT22;10605;52.968;8.844;2023-02-03T18:26:19;7.60;99.90
20891;DHT22;10605;52.968;8.844;2023-02-03T18:28:45;7.60;99.90
20891;DHT22;10605;52.968;8.844;2023-02-03T18:31:13;7.60;99.90
20891;DHT22;10605;52.968;8.844;2023-02-03T18:33:40;7.50;99.90
20891;DHT22;10605;52.968;8.844;2023-02-03T18:36:08;7.50;99.90
20891;DHT22;10605;52.968;8.844;2023-02-03T18:38:34;7.60;99.90
20891;DHT22;10605;52.968;8.844;2023-02-03T18:41:08;7.50;99.90
20891;DHT22;10605;52.968;8.844;2023-02-03T18:43:35;7.50;99.90
20891;DHT22;10605;52.968;8.844;2023-02-03T18:46:09;7.50;99.90
20891;DHT22;10605;52.968;8.844;2023-02-03T18:48:35;7.50;99.90
20891;DHT22;10605;52.968;8.844;2023-02-03T18:51:01;7.40;99.90
20891;DHT22;10605;52.968;8.844;2023-02-03T18:53:28;7.50;99.90
20891;DHT22;10605;52.968;8.844;2023-02-03T18:55:54;7.50;99.90
20891;DHT22;10605;52.968;8.844;2023-02-03T18:58:20;7.50;99.90
20891;DHT22;10605;52.968;8.844;2023-02-03T19:00:46;7.60;99.90
20891;DHT22;10605;52.968;8.844;2023-02-03T19:03:11;7.50;99.90
20891;DHT22;10605;52.968;8.844;2023-02-03T19:05:40;7.50;99.90
20891;DHT22;10605;52.968;8.844;2023-02-03T19:08:06;7.40;99.90
20891;DHT22;10605;52.968;8.844;2023-02-03T19:10:33;7.40;99.90
20891;DHT22;10605;52.968;8.844;2023-02-03T19:12:59;7.40;99.90
20891;DHT22;10605;52.968;8.844;2023-02-03T19:15:24;7.40;99.90
20891;DHT22;10605;52.968;8.844;2023-02-03T19:17:50;7.40;99.90
20891;DHT22;10605;52.968;8.844;2023-02-03T19:20:16;7.40;99.90
20891;DHT22;10605;52.968;8.844;2023-02-03T19:22:41;7.50;99.90
20891;DHT22;10605;52.968;8.844;2023-02-03T19:25:07;7.50;99.90
20891;DHT22;10605;52.968;8.844;2023-02-03T19:27:33;7.50;99.90
20891;DHT22;10605;52.968;8.844;2023-02-03T19:29:58;7.50;99.90
20891;DHT22;10605;52.968;8.844;2023-02-03T19:32:24;7.50;99.90
20891;DHT22;10605;52.968;8.844;2023-02-03T19:34:50;7.60;99.90
20891;DHT22;10605;52.968;8.844;2023-02-03T19:37:15;7.50;99.90
20891;DHT22;10605;52.968;8.844;2023-02-03T19:39:41;7.60;99.90
20891;DHT22;10605;52.968;8.844;2023-02-03T19:42:07;7.50;99.90
20891;DHT22;10605;52.968;8.844;2023-02-03T19:44:33;7.50;99.90
20891;DHT22;10605;52.968;8.844;2023-02-03T19:46:58;7.50;99.90
20891;DHT22;10605;52.968;8.844;2023-02-03T19:49:24;7.50;99.90
20891;DHT22;10605;52.968;8.844;2023-02-03T19:51:50;7.50;99.90
20891;DHT22;10605;52.968;8.844;2023-02-03T19:54:16;7.50;99.90
20891;DHT22;10605;52.968;8.844;2023-02-03T19:56:43;7.60;99.90
20891;DHT22;10605;52.968;8.844;2023-02-03T19:59:10;7.60;99.90
20891;DHT22;10605;52.968;8.844;2023-02-03T20:01:36;7.60;99.90
20891;DHT22;10605;52.968;8.844;2023-02-03T20:04:03;7.60;99.90
20891;DHT22;10605;52.968;8.844;2023-02-03T20:06:29;7.60;99.90
20891;DHT22;10605;52.968;8.844;2023-02-03T20:08:58;7.60;99.90
20891;DHT22;10605;52.968;8.844;2023-02-03T20:11:25;7.70;99.90
20891;DHT22;10605;52.968;8.844;2023-02-03T20:13:51;7.70;99.90
20891;DHT22;10605;52.968;8.844;2023-02-03T20:16:17;7.70;99.90
20891;DHT22;10605;52.968;8.844;2023-02-03T20:18:43;7.70;99.90
20891;DHT22;10605;52.968;8.844;2023-02-03T20:21:09;7.70;99.90
20891;DHT22;10605;52.968;8.844;2023-02-03T20:23:35;7.60;99.90
20891;DHT22;10605;52.968;8.844;2023-02-03T20:26:01;7.60;99.90
20891;DHT22;10605;52.968;8.844;2023-02-03T20:28:27;7.50;99.90
20891;DHT22;10605;52.968;8.844;2023-02-03T20:30:58;7.60;99.90
20891;DHT22;10605;52.968;8.844;2023-02-03T20:33:26;7.60;99.90
20891;DHT22;10605;52.968;8.844;2023-02-03T20:35:52;7.50;99.90
20891;DHT22;10605;52.968;8.844;2023-02-03T20:38:18;7.60;99.90
20891;DHT22;10605;52.968;8.844;2023-02-03T20:40:44;7.60;99.90
20891;DHT22;10605;52.968;8.844;2023-02-03T20:45:43;7.60;99.90
20891;DHT22;10605;52.968;8.844;2023-02-03T20:48:13;7.60;99.90
20891;DHT22;10605;52.968;8.844;2023-02-03T20:50:40;7.60;99.90
20891;DHT22;10605;52.968;8.844;2023-02-03T20:53:22;7.60;99.90
20891;DHT22;10605;52.968;8.844;2023-02-03T20:55:49;7.60;99.90
20891;DHT22;10605;52.968;8.844;2023-02-03T21:00:45;7.60;99.90
20891;DHT22;10605;52.968;8.844;2023-02-03T21:03:12;7.60;99.90
20891;DHT22;10605;52.968;8.844;2023-02-03T21:05:57;7.60;99.90
20891;DHT22;10605;52.968;8.844;2023-02-03T21:08:24;7.60;99.90
20891;DHT22;10605;52.968;8.844;2023-02-03T21:10:50;7.60;99.90
20891;DHT22;10605;52.968;8.844;2023-02-03T21:13:27;7.50;99.90
20891;DHT22;10605;52.968;8.844;2023-02-03T21:15:58;7.50;99.90
20891;DHT22;10605;52.968;8.844;2023-02-03T21:20:59;7.50;99.90
20891;DHT22;10605;52.968;8.844;2023-02-03T21:23:35;7.50;99.90
20891;DHT22;10605;52.968;8.844;2023-02-03T21:26:21;7.50;99.90
20891;DHT22;10605;52.968;8.844;2023-02-03T21:29:00;7.50;99.90
20891;DHT22;10605;52.968;8.844;2023-02-03T21:31:28;7.50;99.90
20891;DHT22;10605;52.968;8.844;2023-02-03T21:33:56;7.50;99.90
20891;DHT22;10605;52.968;8.844;2023-02-03T21:36:25;7.50;99.90
20891;DHT22;10605;52.968;8.844;2023-02-03T21:38:53;7.50;99.90
20891;DHT22;10605;52.968;8.844;2023-02-03T21:41:21;7.50;99.90
20891;DHT22;10605;52.968;8.844;2023-02-03T21:43:51;7.50;99.90
20891;DHT22;10605;52.968;8.844;2023-02-03T21:46:23;7.50;99.90
20891;DHT22;10605;52.968;8.844;2023-02-03T21:48:54;7.50;99.90
20891;DHT22;10605;52.968;8.844;2023-02-03T21:51:28;7.50;99.90
20891;DHT22;10605;52.968;8.844;2023-02-03T21:56:44;7.40;99.90
20891;DHT22;10605;52.968;8.844;2023-02-03T21:59:21;7.40;99.90
20891;DHT22;10605;52.968;8.844;2023-02-03T22:01:47;7.30;99.90